createdAt,value
2023-04-22T00:00:36.193Z,683.14
2023-04-22T00:01:36.173Z,683.59
2023-04-22T00:02:36.397Z,682.62
2023-04-22T00:03:36.324Z,683.42
2023-04-22T00:04:36.546Z,686.00
2023-04-22T00:05:36.177Z,686.90
2023-04-22T00:06:36.131Z,686.46
2023-04-22T00:07:36.116Z,684.89
2023-04-22T00:08:36.099Z,686.23
2023-04-22T00:09:36.312Z,690.42
2023-04-22T00:10:36.103Z,690.95
2023-04-22T00:11:36.085Z,690.79
2023-04-22T00:12:36.056Z,690.63
2023-04-22T00:13:36.048Z,684.93
2023-04-22T00:14:36.033Z,683.52
2023-04-22T00:15:36.037Z,681.72
2023-04-22T00:16:36.181Z,681.19
2023-04-22T00:17:36.044Z,680.43
2023-04-22T00:18:36.041Z,680.00
2023-04-22T00:19:36.255Z,679.78
2023-04-22T00:20:35.976Z,680.16
2023-04-22T00:21:35.968Z,680.70
2023-04-22T00:22:35.955Z,681.53
2023-04-22T00:23:35.957Z,681.78
2023-04-22T00:24:35.928Z,682.58
2023-04-22T00:25:35.921Z,684.35
2023-04-22T00:26:35.898Z,687.86
2023-04-22T00:27:35.922Z,687.57
2023-04-22T00:28:35.888Z,686.16
2023-04-22T00:29:36.096Z,687.80
2023-04-22T00:30:35.892Z,688.11
2023-04-22T00:31:35.872Z,687.45
2023-04-22T00:32:35.898Z,687.40
2023-04-22T00:33:35.823Z,687.07
2023-04-22T00:34:35.835Z,687.64
2023-04-22T00:35:35.831Z,686.64
2023-04-22T00:36:35.796Z,685.99
2023-04-22T00:37:35.801Z,686.04
2023-04-22T00:38:35.769Z,686.77
2023-04-22T00:39:35.764Z,686.09
2023-04-22T00:40:35.773Z,688.20
2023-04-22T00:41:35.742Z,689.98
2023-04-22T00:42:43.225Z,687.91
2023-04-22T00:43:35.723Z,694.86
2023-04-22T00:44:35.725Z,691.37
2023-04-22T00:45:35.694Z,689.07
2023-04-22T00:46:35.759Z,688.91
2023-04-22T00:47:35.716Z,689.22
2023-04-22T00:48:35.662Z,692.22
2023-04-22T00:49:35.642Z,690.63
2023-04-22T00:50:35.700Z,690.37
2023-04-22T00:51:35.634Z,690.01
2023-04-22T00:52:35.639Z,689.01
2023-04-22T00:53:35.600Z,688.73
2023-04-22T00:54:35.624Z,689.26
2023-04-22T00:55:35.593Z,690.61
2023-04-22T00:56:35.589Z,692.91
2023-04-22T00:57:35.582Z,693.15
2023-04-22T00:58:35.589Z,692.41
2023-04-22T00:59:35.539Z,691.89
2023-04-22T01:00:35.567Z,691.28
2023-04-22T01:01:35.575Z,691.26
2023-04-22T01:02:35.611Z,691.19
2023-04-22T01:03:35.719Z,692.88
2023-04-22T01:04:35.481Z,694.72
2023-04-22T01:05:35.489Z,693.05
2023-04-22T01:06:35.493Z,693.59
2023-04-22T01:07:35.465Z,694.91
2023-04-22T01:08:35.465Z,693.82
2023-04-22T01:09:35.421Z,694.36
2023-04-22T01:10:35.411Z,696.77
2023-04-22T01:11:35.408Z,699.93
2023-04-22T01:12:35.410Z,702.22
2023-04-22T01:13:35.384Z,702.11
2023-04-22T01:14:35.391Z,699.21
2023-04-22T01:15:35.363Z,700.40
2023-04-22T01:16:35.398Z,706.86
2023-04-22T01:17:35.373Z,709.96
2023-04-22T01:18:35.369Z,715.83
2023-04-22T01:19:35.315Z,712.68
2023-04-22T01:20:35.308Z,709.48
2023-04-22T01:21:35.317Z,714.02
2023-04-22T01:22:35.299Z,710.91
2023-04-22T01:23:35.292Z,708.76
2023-04-22T01:24:35.257Z,708.07
2023-04-22T01:25:35.247Z,709.95
2023-04-22T01:26:35.268Z,711.67
2023-04-22T01:27:35.228Z,710.38
2023-04-22T01:28:36.053Z,711.15
2023-04-22T01:29:35.207Z,710.64
2023-04-22T01:30:35.210Z,712.70
2023-04-22T01:31:35.233Z,712.77
2023-04-22T01:32:35.212Z,715.54
2023-04-22T01:33:35.185Z,713.62
2023-04-22T01:34:35.154Z,713.30
2023-04-22T01:35:35.163Z,714.95
2023-04-22T01:36:35.153Z,714.85
2023-04-22T01:37:35.128Z,713.41
2023-04-22T01:38:35.248Z,715.19
2023-04-22T01:39:35.106Z,713.77
2023-04-22T01:40:35.081Z,713.13
2023-04-22T01:41:35.078Z,711.01
2023-04-22T01:42:35.068Z,707.74
2023-04-22T01:43:35.050Z,708.28
2023-04-22T01:44:35.052Z,713.82
2023-04-22T01:45:35.127Z,712.46
2023-04-22T01:46:35.150Z,714.40
2023-04-22T01:47:35.021Z,712.76
2023-04-22T01:48:35.011Z,712.74
2023-04-22T01:49:34.990Z,709.22
2023-04-22T01:50:34.984Z,707.64
2023-04-22T01:51:34.969Z,709.45
2023-04-22T01:52:34.951Z,710.75
2023-04-22T01:53:34.955Z,715.40
2023-04-22T01:54:34.949Z,715.85
2023-04-22T01:55:34.930Z,719.20
2023-04-22T01:56:34.917Z,715.70
2023-04-22T01:57:34.955Z,714.77
2023-04-22T01:58:34.896Z,717.37
2023-04-22T01:59:34.901Z,718.02
2023-04-22T02:00:34.877Z,719.64
2023-04-22T02:01:34.947Z,723.17
2023-04-22T02:02:34.978Z,720.68
2023-04-22T02:03:34.897Z,719.48
2023-04-22T02:04:34.901Z,717.15
2023-04-22T02:05:34.818Z,717.88
2023-04-22T02:06:34.813Z,719.06
2023-04-22T02:07:34.794Z,719.63
2023-04-22T02:08:34.778Z,718.62
2023-04-22T02:09:34.766Z,715.29
2023-04-22T02:10:34.774Z,716.27
2023-04-22T02:11:34.767Z,714.82
2023-04-22T02:12:34.741Z,713.99
2023-04-22T02:13:34.722Z,716.72
2023-04-22T02:14:34.724Z,716.36
2023-04-22T02:15:34.777Z,718.50
2023-04-22T02:16:34.692Z,718.01
2023-04-22T02:17:34.672Z,721.42
2023-04-22T02:18:34.661Z,714.56
2023-04-22T02:19:34.684Z,711.25
2023-04-22T02:20:34.639Z,716.52
2023-04-22T02:21:34.656Z,718.22
2023-04-22T02:22:34.611Z,716.62
2023-04-22T02:23:34.643Z,717.65
2023-04-22T02:24:34.594Z,715.15
2023-04-22T02:25:34.587Z,716.39
2023-04-22T02:26:34.700Z,716.34
2023-04-22T02:27:34.567Z,717.00
2023-04-22T02:28:34.587Z,718.62
2023-04-22T02:29:34.575Z,718.43
2023-04-22T02:30:34.538Z,718.19
2023-04-22T02:31:34.597Z,717.86
2023-04-22T02:32:34.543Z,716.11
2023-04-22T02:33:34.513Z,714.79
2023-04-22T02:34:34.503Z,714.24
2023-04-22T02:35:34.483Z,715.06
2023-04-22T02:36:34.462Z,715.45
2023-04-22T02:37:34.451Z,717.88
2023-04-22T02:38:34.447Z,718.31
2023-04-22T02:39:34.452Z,713.30
2023-04-22T02:40:34.442Z,711.80
2023-04-22T02:41:34.418Z,716.33
2023-04-22T02:42:34.431Z,717.05
2023-04-22T02:43:41.898Z,707.97
2023-04-22T02:44:34.370Z,708.80
2023-04-22T02:45:34.376Z,717.16
2023-04-22T02:46:34.396Z,720.14
2023-04-22T02:47:34.383Z,723.44
2023-04-22T02:48:34.350Z,718.18
2023-04-22T02:49:34.319Z,719.89
2023-04-22T02:50:34.302Z,721.36
2023-04-22T02:51:34.297Z,720.23
2023-04-22T02:52:34.290Z,717.73
2023-04-22T02:53:34.289Z,719.82
2023-04-22T02:54:34.270Z,718.62
2023-04-22T02:55:34.252Z,717.31
2023-04-22T02:56:34.248Z,716.39
2023-04-22T02:57:34.233Z,716.14
2023-04-22T02:58:34.260Z,714.59
2023-04-22T02:59:34.210Z,716.10
2023-04-22T03:00:34.227Z,713.42
2023-04-22T03:01:34.317Z,718.41
2023-04-22T03:02:34.381Z,714.47
2023-04-22T03:03:34.405Z,716.76
2023-04-22T03:04:34.279Z,714.61
2023-04-22T03:05:34.170Z,717.72
2023-04-22T03:06:34.125Z,715.90
2023-04-22T03:07:34.162Z,715.09
2023-04-22T03:08:34.129Z,712.48
2023-04-22T03:09:34.096Z,716.30
2023-04-22T03:10:34.086Z,717.95
2023-04-22T03:11:34.073Z,716.74
2023-04-22T03:12:34.084Z,715.70
2023-04-22T03:13:34.078Z,715.31
2023-04-22T03:14:34.082Z,712.50
2023-04-22T03:15:34.049Z,710.19
2023-04-22T03:16:34.072Z,714.75
2023-04-22T03:17:34.042Z,713.64
2023-04-22T03:18:34.008Z,715.98
2023-04-22T03:19:34.015Z,711.23
2023-04-22T03:20:34.032Z,713.65
2023-04-22T03:21:34.005Z,713.95
2023-04-22T03:22:33.956Z,718.30
2023-04-22T03:23:33.944Z,714.57
2023-04-22T03:24:33.930Z,714.52
2023-04-22T03:25:33.938Z,711.44
2023-04-22T03:26:33.910Z,711.19
2023-04-22T03:27:33.899Z,714.39
2023-04-22T03:28:33.898Z,712.49
2023-04-22T03:29:33.877Z,708.89
2023-04-22T03:30:33.884Z,706.55
2023-04-22T03:31:33.898Z,707.80
2023-04-22T03:32:33.890Z,713.46
2023-04-22T03:33:33.846Z,714.48
2023-04-22T03:34:35.206Z,714.85
2023-04-22T03:35:33.809Z,710.00
2023-04-22T03:36:33.802Z,712.90
2023-04-22T03:37:33.809Z,709.04
2023-04-22T03:38:33.778Z,711.29
2023-04-22T03:39:33.781Z,712.39
2023-04-22T03:40:33.755Z,711.32
2023-04-22T03:41:33.770Z,707.15
2023-04-22T03:42:33.730Z,710.59
2023-04-22T03:43:33.738Z,711.43
2023-04-22T03:44:33.709Z,711.01
2023-04-22T03:45:33.770Z,717.19
2023-04-22T03:46:33.783Z,720.52
2023-04-22T03:47:33.742Z,715.55
2023-04-22T03:48:33.692Z,718.22
2023-04-22T03:49:33.666Z,713.75
2023-04-22T03:50:33.655Z,716.29
2023-04-22T03:51:33.666Z,712.39
2023-04-22T03:52:33.619Z,716.79
2023-04-22T03:53:33.616Z,719.78
2023-04-22T03:54:33.612Z,715.42
2023-04-22T03:55:33.591Z,709.79
2023-04-22T03:56:33.584Z,712.92
2023-04-22T03:57:33.585Z,716.18
2023-04-22T03:58:33.557Z,713.73
2023-04-22T03:59:33.550Z,714.61
2023-04-22T04:00:33.534Z,718.76
2023-04-22T04:01:33.522Z,722.23
2023-04-22T04:02:33.691Z,719.01
2023-04-22T04:03:33.748Z,716.26
2023-04-22T04:04:33.763Z,719.22
2023-04-22T04:05:33.810Z,715.41
2023-04-22T04:06:33.535Z,712.64
2023-04-22T04:07:33.474Z,711.47
2023-04-22T04:08:33.441Z,708.53
2023-04-22T04:09:33.440Z,713.27
2023-04-22T04:10:33.468Z,708.70
2023-04-22T04:11:33.450Z,707.60
2023-04-22T04:12:33.414Z,711.50
2023-04-22T04:13:33.409Z,717.39
2023-04-22T04:14:33.374Z,717.28
2023-04-22T04:15:33.437Z,713.87
2023-04-22T04:16:33.426Z,717.94
2023-04-22T04:17:33.443Z,717.45
2023-04-22T04:18:33.365Z,714.01
2023-04-22T04:19:33.340Z,716.41
2023-04-22T04:20:33.310Z,719.21
2023-04-22T04:21:33.300Z,717.13
2023-04-22T04:22:33.287Z,714.99
2023-04-22T04:23:33.293Z,712.11
2023-04-22T04:24:33.265Z,713.29
2023-04-22T04:25:33.268Z,713.94
2023-04-22T04:26:34.077Z,715.39
2023-04-22T04:27:33.233Z,716.82
2023-04-22T04:28:33.253Z,712.00
2023-04-22T04:29:33.214Z,709.83
2023-04-22T04:30:33.657Z,708.19
2023-04-22T04:31:33.286Z,712.12
2023-04-22T04:32:33.235Z,718.46
2023-04-22T04:33:33.164Z,716.36
2023-04-22T04:34:33.251Z,720.87
2023-04-22T04:35:33.145Z,718.90
2023-04-22T04:36:33.137Z,718.70
2023-04-22T04:37:33.126Z,722.22
2023-04-22T04:38:33.114Z,715.33
2023-04-22T04:39:33.105Z,716.07
2023-04-22T04:40:33.095Z,713.66
2023-04-22T04:41:33.079Z,715.49
2023-04-22T04:42:33.065Z,716.53
2023-04-22T04:43:33.061Z,717.87
2023-04-22T04:44:40.548Z,714.21
2023-04-22T04:45:33.042Z,716.12
2023-04-22T04:46:33.060Z,718.71
2023-04-22T04:47:33.063Z,721.59
2023-04-22T04:48:33.013Z,719.51
2023-04-22T04:49:32.986Z,719.22
2023-04-22T04:50:33.010Z,718.41
2023-04-22T04:51:32.986Z,718.57
2023-04-22T04:52:32.952Z,715.62
2023-04-22T04:53:32.939Z,717.83
2023-04-22T04:54:32.944Z,712.87
2023-04-22T04:55:32.951Z,715.78
2023-04-22T04:56:32.912Z,716.43
2023-04-22T04:57:32.895Z,718.40
2023-04-22T04:58:32.889Z,715.96
2023-04-22T04:59:32.872Z,715.75
2023-04-22T05:00:32.868Z,715.83
2023-04-22T05:01:32.917Z,714.33
2023-04-22T05:02:32.941Z,719.79
2023-04-22T05:03:32.989Z,715.06
2023-04-22T05:04:33.065Z,717.08
2023-04-22T05:05:32.809Z,713.58
2023-04-22T05:06:32.852Z,714.29
2023-04-22T05:07:32.791Z,715.30
2023-04-22T05:08:32.786Z,712.28
2023-04-22T05:09:32.766Z,712.76
2023-04-22T05:10:32.775Z,715.13
2023-04-22T05:11:32.744Z,714.08
2023-04-22T05:12:32.748Z,715.09
2023-04-22T05:13:32.726Z,714.03
2023-04-22T05:14:32.723Z,711.01
2023-04-22T05:15:32.701Z,709.92
2023-04-22T05:16:32.746Z,709.84
2023-04-22T05:17:32.716Z,712.73
2023-04-22T05:18:32.677Z,711.60
2023-04-22T05:19:32.669Z,713.47
2023-04-22T05:20:35.336Z,711.32
2023-04-22T05:21:32.635Z,710.76
2023-04-22T05:22:32.670Z,705.68
2023-04-22T05:23:32.624Z,709.12
2023-04-22T05:24:32.607Z,713.32
2023-04-22T05:25:32.598Z,711.89
2023-04-22T05:26:32.592Z,711.98
2023-04-22T05:27:32.589Z,711.71
2023-04-22T05:28:32.577Z,714.38
2023-04-22T05:29:32.575Z,714.27
2023-04-22T05:30:32.538Z,710.66
2023-04-22T05:31:32.689Z,709.10
2023-04-22T05:32:32.562Z,711.67
2023-04-22T05:33:32.515Z,712.71
2023-04-22T05:34:32.509Z,712.11
2023-04-22T05:35:32.489Z,711.47
2023-04-22T05:36:32.473Z,711.97
2023-04-22T05:37:32.464Z,712.75
2023-04-22T05:38:32.475Z,712.57
2023-04-22T05:39:32.455Z,712.07
2023-04-22T05:40:32.450Z,710.43
2023-04-22T05:41:32.413Z,710.72
2023-04-22T05:42:32.426Z,708.46
2023-04-22T05:43:32.409Z,709.07
2023-04-22T05:44:32.388Z,708.59
2023-04-22T05:45:32.421Z,708.50
2023-04-22T05:46:32.454Z,712.20
2023-04-22T05:47:32.405Z,709.34
2023-04-22T05:48:32.347Z,705.73
2023-04-22T05:49:32.334Z,707.81
2023-04-22T05:50:32.327Z,709.88
2023-04-22T05:51:32.301Z,710.58
2023-04-22T05:52:32.311Z,712.29
2023-04-22T05:53:32.312Z,709.60
2023-04-22T05:54:32.295Z,712.50
2023-04-22T05:55:32.362Z,708.04
2023-04-22T05:56:32.259Z,705.60
2023-04-22T05:57:32.238Z,709.76
2023-04-22T05:58:32.239Z,710.67
2023-04-22T05:59:32.216Z,705.10
2023-04-22T06:00:32.227Z,707.84
2023-04-22T06:01:32.206Z,709.82
2023-04-22T06:02:32.316Z,706.02
2023-04-22T06:03:32.474Z,705.07
2023-04-22T06:04:35.349Z,709.19
2023-04-22T06:05:32.199Z,707.36
2023-04-22T06:06:32.151Z,706.38
2023-04-22T06:07:32.121Z,705.69
2023-04-22T06:08:32.136Z,705.40
2023-04-22T06:09:32.103Z,707.34
2023-04-22T06:10:32.119Z,709.27
2023-04-22T06:11:32.109Z,707.49
2023-04-22T06:12:32.076Z,707.30
2023-04-22T06:13:32.063Z,708.99
2023-04-22T06:14:32.048Z,710.26
2023-04-22T06:15:32.074Z,707.64
2023-04-22T06:16:32.040Z,706.57
2023-04-22T06:17:32.053Z,708.52
2023-04-22T06:18:32.008Z,709.20
2023-04-22T06:19:32.002Z,707.74
2023-04-22T06:20:31.997Z,705.31
2023-04-22T06:21:31.970Z,708.29
2023-04-22T06:22:31.969Z,708.21
2023-04-22T06:23:31.946Z,706.79
2023-04-22T06:24:31.953Z,709.26
2023-04-22T06:25:31.933Z,705.66
2023-04-22T06:26:31.937Z,708.61
2023-04-22T06:27:31.917Z,710.45
2023-04-22T06:28:31.915Z,709.49
2023-04-22T06:29:31.900Z,708.03
2023-04-22T06:30:31.866Z,710.57
2023-04-22T06:31:31.892Z,708.42
2023-04-22T06:32:31.882Z,706.95
2023-04-22T06:33:31.849Z,710.40
2023-04-22T06:34:31.824Z,708.80
2023-04-22T06:35:31.813Z,710.30
2023-04-22T06:36:31.801Z,707.58
2023-04-22T06:37:31.800Z,710.40
2023-04-22T06:38:31.780Z,704.42
2023-04-22T06:39:31.772Z,709.26
2023-04-22T06:40:31.760Z,709.11
2023-04-22T06:41:31.765Z,710.33
2023-04-22T06:42:31.778Z,710.55
2023-04-22T06:43:31.724Z,708.98
2023-04-22T06:44:31.711Z,708.68
2023-04-22T06:45:39.547Z,701.27
2023-04-22T06:46:31.725Z,704.98
2023-04-22T06:47:31.723Z,702.77
2023-04-22T06:48:31.686Z,704.11
2023-04-22T06:49:31.649Z,705.39
2023-04-22T06:50:31.644Z,715.37
2023-04-22T06:51:31.639Z,709.21
2023-04-22T06:52:31.659Z,708.13
2023-04-22T06:53:31.606Z,714.04
2023-04-22T06:54:31.598Z,705.65
2023-04-22T06:55:31.585Z,706.12
2023-04-22T06:56:31.591Z,710.99
2023-04-22T06:57:31.575Z,706.49
2023-04-22T06:58:31.579Z,703.55
2023-04-22T06:59:31.579Z,707.99
2023-04-22T07:00:31.532Z,701.37
2023-04-22T07:01:31.577Z,703.96
2023-04-22T07:02:31.603Z,711.17
2023-04-22T07:03:31.761Z,707.64
2023-04-22T07:04:31.532Z,704.04
2023-04-22T07:05:31.484Z,708.35
2023-04-22T07:12:13.791Z,709.21
2023-04-22T07:13:13.758Z,706.80
2023-04-22T07:14:13.760Z,703.74
2023-04-22T07:15:13.769Z,701.46
2023-04-22T07:16:13.778Z,702.53
2023-04-22T07:17:13.716Z,709.68
2023-04-22T07:18:13.701Z,706.46
2023-04-22T07:19:13.709Z,704.90
2023-04-22T07:20:13.681Z,709.84
2023-04-22T07:21:13.681Z,701.86
2023-04-22T07:22:13.659Z,697.15
2023-04-22T07:23:13.661Z,707.31
2023-04-22T07:24:13.639Z,703.12
2023-04-22T07:25:13.640Z,705.31
2023-04-22T07:26:13.637Z,705.07
2023-04-22T07:27:13.615Z,701.87
2023-04-22T07:28:13.595Z,706.51
2023-04-22T07:29:13.589Z,704.29
2023-04-22T07:30:13.616Z,701.73
2023-04-22T07:31:13.573Z,706.09
2023-04-22T07:32:13.694Z,704.61
2023-04-22T07:33:13.538Z,705.47
2023-04-22T07:34:13.528Z,708.82
2023-04-22T07:35:13.519Z,705.86
2023-04-22T07:36:13.523Z,703.37
2023-04-22T07:37:13.511Z,705.13
2023-04-22T07:38:14.675Z,704.61
2023-04-22T07:39:13.468Z,704.77
2023-04-22T07:40:13.463Z,711.86
2023-04-22T07:41:13.474Z,707.17
2023-04-22T07:42:13.449Z,706.76
2023-04-22T07:43:13.437Z,700.31
2023-04-22T07:44:13.415Z,697.74
2023-04-22T07:45:13.405Z,706.17
2023-04-22T07:46:13.480Z,704.18
2023-04-22T07:47:13.399Z,699.89
2023-04-22T07:48:13.373Z,707.69
2023-04-22T07:49:13.364Z,712.68
2023-04-22T07:50:13.351Z,704.81
2023-04-22T07:51:13.352Z,702.05
2023-04-22T07:52:13.336Z,702.41
2023-04-22T07:53:13.343Z,706.81
2023-04-22T07:54:13.322Z,701.09
2023-04-22T07:55:13.303Z,702.70
2023-04-22T07:56:13.299Z,702.75
2023-04-22T07:57:13.272Z,699.53
2023-04-22T07:58:13.265Z,697.18
2023-04-22T07:59:13.253Z,695.52
2023-04-22T08:00:13.254Z,694.10
2023-04-22T08:01:13.355Z,697.96
2023-04-22T08:02:13.330Z,698.06
2023-04-22T08:03:13.436Z,695.52
2023-04-22T08:04:13.481Z,697.38
2023-04-22T08:05:13.329Z,702.14
2023-04-22T08:06:13.189Z,706.91
2023-04-22T08:07:30.819Z,706.67
2023-04-22T08:08:13.185Z,707.70
2023-04-22T08:09:13.145Z,705.22
2023-04-22T08:10:13.163Z,705.83
2023-04-22T08:11:13.141Z,703.82
2023-04-22T08:12:13.131Z,701.49
2023-04-22T08:13:13.121Z,691.73
2023-04-22T08:14:13.108Z,687.29
2023-04-22T08:15:13.086Z,683.18
2023-04-22T08:16:13.118Z,690.89
2023-04-22T08:17:13.071Z,693.63
2023-04-22T08:18:13.075Z,700.27
2023-04-22T08:19:13.065Z,702.62
2023-04-22T08:20:13.059Z,704.27
2023-04-22T08:21:13.020Z,702.60
2023-04-22T08:22:13.012Z,702.41
2023-04-22T08:23:13.008Z,701.08
2023-04-22T08:24:12.989Z,701.50
2023-04-22T08:25:12.976Z,694.18
2023-04-22T08:26:12.968Z,697.27
2023-04-22T08:27:12.956Z,698.88
2023-04-22T08:28:12.967Z,688.31
2023-04-22T08:29:12.957Z,688.19
2023-04-22T08:30:12.928Z,686.46
2023-04-22T08:31:13.036Z,685.58
2023-04-22T08:32:12.917Z,686.87
2023-04-22T08:33:12.891Z,683.38
2023-04-22T08:34:12.909Z,684.90
2023-04-22T08:35:12.870Z,688.78
2023-04-22T08:36:12.880Z,695.65
2023-04-22T08:37:12.856Z,699.99
2023-04-22T08:38:12.841Z,696.05
2023-04-22T08:39:12.819Z,696.68
2023-04-22T08:40:12.824Z,696.88
2023-04-22T08:41:12.804Z,702.08
2023-04-22T08:42:12.803Z,699.40
2023-04-22T08:43:12.784Z,691.89
2023-04-22T08:44:12.769Z,698.24
2023-04-22T08:45:12.755Z,697.87
2023-04-22T08:46:12.782Z,696.88
2023-04-22T08:47:12.758Z,697.72
2023-04-22T08:48:12.728Z,688.09
2023-04-22T08:49:12.713Z,685.99
2023-04-22T08:50:12.729Z,684.22
2023-04-22T08:51:12.705Z,686.44
2023-04-22T08:52:12.714Z,685.81
2023-04-22T08:53:12.682Z,688.40
2023-04-22T08:54:12.667Z,688.54
2023-04-22T08:55:12.644Z,683.57
2023-04-22T08:56:12.638Z,685.23
2023-04-22T08:57:12.625Z,684.40
2023-04-22T08:58:12.615Z,693.12
2023-04-22T08:59:12.620Z,689.12
2023-04-22T09:00:12.593Z,683.85
2023-04-22T09:01:12.722Z,685.57
2023-04-22T09:02:12.582Z,683.27
2023-04-22T09:03:12.641Z,676.66
2023-04-22T09:04:12.667Z,688.69
2023-04-22T09:05:12.536Z,688.78
2023-04-22T09:06:12.547Z,693.73
2023-04-22T09:07:12.533Z,693.87
2023-04-22T09:08:12.509Z,687.82
2023-04-22T09:09:12.508Z,689.24
2023-04-22T09:10:12.508Z,684.77
2023-04-22T09:11:12.475Z,693.92
2023-04-22T09:12:19.990Z,685.42
2023-04-22T09:13:12.463Z,687.11
2023-04-22T09:14:12.443Z,693.21
2023-04-22T09:15:12.435Z,694.89
2023-04-22T09:16:12.448Z,697.48
2023-04-22T09:17:12.410Z,687.27
2023-04-22T09:18:12.411Z,683.60
2023-04-22T09:19:12.382Z,681.26
2023-04-22T09:20:12.375Z,677.11
2023-04-22T09:21:12.377Z,677.28
2023-04-22T09:22:12.375Z,681.09
2023-04-22T09:23:12.357Z,686.89
2023-04-22T09:24:12.347Z,680.26
2023-04-22T09:25:12.331Z,678.37
2023-04-22T09:26:12.312Z,679.39
2023-04-22T09:27:12.312Z,680.40
2023-04-22T09:28:12.316Z,678.20
2023-04-22T09:29:12.274Z,681.43
2023-04-22T09:30:12.266Z,682.02
2023-04-22T09:31:12.257Z,685.57
2023-04-22T09:32:12.280Z,678.70
2023-04-22T09:33:12.332Z,676.35
2023-04-22T09:34:12.821Z,675.19
2023-04-22T09:35:12.216Z,674.91
2023-04-22T09:36:12.216Z,674.31
2023-04-22T09:37:12.215Z,673.03
2023-04-22T09:38:12.203Z,672.51
2023-04-22T09:39:12.169Z,675.40
2023-04-22T09:40:12.167Z,676.14
2023-04-22T09:41:12.154Z,676.61
2023-04-22T09:42:12.148Z,673.74
2023-04-22T09:43:12.141Z,671.97
2023-04-22T09:44:12.113Z,673.31
2023-04-22T09:45:12.108Z,674.12
2023-04-22T09:46:12.124Z,674.19
2023-04-22T09:47:12.095Z,671.15
2023-04-22T09:48:12.077Z,673.43
2023-04-22T09:49:12.074Z,673.15
2023-04-22T09:50:12.054Z,669.87
2023-04-22T09:51:12.056Z,669.30
2023-04-22T09:52:12.035Z,665.90
2023-04-22T09:53:12.016Z,669.07
2023-04-22T09:54:12.088Z,670.95
2023-04-22T09:55:11.997Z,678.04
2023-04-22T09:56:11.993Z,678.23
2023-04-22T09:57:11.983Z,678.48
2023-04-22T09:58:11.988Z,677.70
2023-04-22T09:59:11.968Z,675.96
2023-04-22T10:00:12.381Z,675.13
2023-04-22T10:01:11.993Z,672.96
2023-04-22T10:02:11.977Z,670.68
2023-04-22T10:03:11.959Z,673.93
2023-04-22T10:04:11.942Z,678.39
2023-04-22T10:05:11.882Z,683.79
2023-04-22T10:06:11.885Z,677.20
2023-04-22T10:07:11.873Z,676.61
2023-04-22T10:08:11.940Z,674.63
2023-04-22T10:09:11.843Z,678.09
2023-04-22T10:10:11.855Z,681.40
2023-04-22T10:11:11.828Z,678.59
2023-04-22T10:12:11.819Z,676.25
2023-04-22T10:13:11.793Z,676.37
2023-04-22T10:14:11.810Z,675.23
2023-04-22T10:15:11.775Z,682.68
2023-04-22T10:16:11.768Z,679.46
2023-04-22T10:17:11.752Z,681.53
2023-04-22T10:18:11.765Z,681.81
2023-04-22T10:19:11.726Z,681.36
2023-04-22T10:20:11.724Z,680.77
2023-04-22T10:21:11.706Z,678.03
2023-04-22T10:22:11.699Z,674.33
2023-04-22T10:23:11.685Z,671.37
2023-04-22T10:24:11.690Z,669.65
2023-04-22T10:25:11.665Z,675.60
2023-04-22T10:26:11.674Z,672.34
2023-04-22T10:27:11.661Z,668.96
2023-04-22T10:28:11.653Z,673.66
2023-04-22T10:29:11.630Z,672.93
2023-04-22T10:30:11.629Z,677.41
2023-04-22T10:31:11.635Z,679.78
2023-04-22T10:32:11.602Z,680.18
2023-04-22T10:33:11.578Z,677.22
2023-04-22T10:34:11.565Z,674.55
2023-04-22T10:35:11.567Z,673.28
2023-04-22T10:36:11.604Z,669.05
2023-04-22T10:37:11.740Z,671.15
2023-04-22T10:38:11.525Z,671.64
2023-04-22T10:39:11.747Z,677.62
2023-04-22T10:40:11.522Z,675.56
2023-04-22T10:41:11.490Z,670.11
2023-04-22T10:42:11.531Z,671.65
2023-04-22T10:43:11.474Z,680.16
2023-04-22T10:44:11.460Z,675.31
2023-04-22T10:45:11.448Z,670.24
2023-04-22T10:46:11.473Z,669.32
2023-04-22T10:47:11.446Z,670.81
2023-04-22T10:48:11.419Z,675.21
2023-04-22T10:49:11.434Z,674.94
2023-04-22T10:50:11.414Z,676.59
2023-04-22T10:51:11.516Z,675.68
2023-04-22T10:52:11.375Z,684.07
2023-04-22T10:53:11.361Z,686.32
2023-04-22T10:54:11.357Z,678.69
2023-04-22T10:55:11.352Z,675.71
2023-04-22T10:56:11.334Z,677.69
2023-04-22T10:57:11.324Z,677.94
2023-04-22T10:58:11.345Z,676.54
2023-04-22T10:59:11.334Z,674.20
2023-04-22T11:00:11.330Z,673.36
2023-04-22T11:01:11.324Z,670.05
2023-04-22T11:02:11.386Z,670.19
2023-04-22T11:03:11.380Z,672.18
2023-04-22T11:04:11.391Z,674.45
2023-04-22T11:05:11.242Z,670.58
2023-04-22T11:06:11.241Z,669.42
2023-04-22T11:07:11.238Z,669.50
2023-04-22T11:08:11.208Z,671.77
2023-04-22T11:09:11.193Z,670.24
2023-04-22T11:10:11.187Z,669.00
2023-04-22T11:11:11.194Z,668.29
2023-04-22T11:12:11.213Z,667.12
2023-04-22T11:13:18.677Z,663.90
2023-04-22T11:14:11.148Z,667.27
2023-04-22T11:15:11.152Z,671.02
2023-04-22T11:16:11.322Z,669.05
2023-04-22T11:17:11.107Z,662.38
2023-04-22T11:18:11.104Z,665.87
2023-04-22T11:19:11.121Z,666.62
2023-04-22T11:20:11.103Z,666.31
2023-04-22T11:21:11.077Z,667.90
2023-04-22T11:22:11.069Z,668.76
2023-04-22T11:23:11.042Z,672.40
2023-04-22T11:24:11.036Z,670.37
2023-04-22T11:25:11.031Z,675.11
2023-04-22T11:26:11.024Z,670.15
2023-04-22T11:27:11.020Z,669.36
2023-04-22T11:28:10.995Z,667.18
2023-04-22T11:29:11.106Z,670.04
2023-04-22T11:30:10.975Z,670.49
2023-04-22T11:31:10.995Z,670.33
2023-04-22T11:32:10.952Z,676.25
2023-04-22T11:33:10.935Z,673.24
2023-04-22T11:34:10.923Z,672.21
2023-04-22T11:35:10.925Z,670.71
2023-04-22T11:36:10.921Z,670.52
2023-04-22T11:37:10.894Z,668.75
2023-04-22T11:38:10.895Z,670.82
2023-04-22T11:39:10.905Z,668.95
2023-04-22T11:40:28.045Z,674.31
2023-04-22T11:41:10.870Z,674.43
2023-04-22T11:42:10.865Z,675.39
2023-04-22T11:43:10.848Z,672.02
2023-04-22T11:44:10.819Z,671.60
2023-04-22T11:45:10.860Z,667.62
2023-04-22T11:46:10.833Z,668.78
2023-04-22T11:47:10.787Z,672.22
2023-04-22T11:48:10.787Z,670.90
2023-04-22T11:49:10.768Z,669.66
2023-04-22T11:50:10.756Z,671.77
2023-04-22T11:51:10.760Z,675.01
2023-04-22T11:52:10.751Z,673.52
2023-04-22T11:53:10.737Z,674.32
2023-04-22T11:54:10.713Z,671.48
2023-04-22T11:55:10.716Z,672.80
2023-04-22T11:56:10.687Z,670.09
2023-04-22T11:57:10.685Z,670.01
2023-04-22T11:58:10.668Z,672.91
2023-04-22T11:59:10.673Z,671.25
2023-04-22T12:00:10.647Z,669.42
2023-04-22T12:01:10.666Z,670.97
2023-04-22T12:02:10.710Z,673.43
2023-04-22T12:03:12.666Z,674.34
2023-04-22T12:04:10.747Z,669.35
2023-04-22T12:05:10.651Z,670.27
2023-04-22T12:06:10.595Z,668.37
2023-04-22T12:07:10.610Z,671.15
2023-04-22T12:08:10.563Z,666.06
2023-04-22T12:09:11.997Z,663.94
2023-04-22T12:10:10.559Z,663.07
2023-04-22T12:11:10.531Z,662.12
2023-04-22T12:12:10.523Z,665.09
2023-04-22T12:13:10.518Z,665.64
2023-04-22T12:14:10.498Z,666.11
2023-04-22T12:15:12.723Z,664.27
2023-04-22T12:16:10.476Z,663.30
2023-04-22T12:17:10.535Z,661.78
2023-04-22T12:18:10.469Z,660.19
2023-04-22T12:19:10.454Z,661.41
2023-04-22T12:20:10.434Z,665.17
2023-04-22T12:21:10.424Z,664.10
2023-04-22T12:22:10.426Z,660.86
2023-04-22T12:23:10.404Z,665.63
2023-04-22T12:24:10.399Z,661.42
2023-04-22T12:25:10.383Z,663.24
2023-04-22T12:26:10.371Z,663.77
2023-04-22T12:27:10.374Z,664.36
2023-04-22T12:28:10.346Z,665.49
2023-04-22T12:29:10.340Z,667.15
2023-04-22T12:30:10.337Z,665.78
2023-04-22T12:31:10.383Z,662.83
2023-04-22T12:32:10.306Z,661.00
2023-04-22T12:33:10.320Z,666.04
2023-04-22T12:34:10.311Z,668.20